createdAt,value
2017-09-03T00:01:04.280Z,10.80
2017-09-03T00:03:31.835Z,10.70
2017-09-03T00:05:59.374Z,10.70
2017-09-03T00:08:27.364Z,10.70
2017-09-03T00:10:54.877Z,10.60
2017-09-03T00:13:22.381Z,10.60
2017-09-03T00:15:49.891Z,10.60
2017-09-03T00:18:17.430Z,10.50
2017-09-03T00:20:44.963Z,10.50
2017-09-03T00:23:12.481Z,10.50
2017-09-03T00:25:40.499Z,10.50
2017-09-03T00:28:08.011Z,10.50
2017-09-03T00:33:09.347Z,10.40
2017-09-03T00:35:36.859Z,10.40
2017-09-03T00:38:04.412Z,10.40
2017-09-03T00:40:31.924Z,10.50
2017-09-03T00:42:59.439Z,10.40
2017-09-03T00:45:26.971Z,10.50
2017-09-03T00:47:54.483Z,10.50
2017-09-03T00:50:22.001Z,10.50
2017-09-03T00:52:49.507Z,10.50
2017-09-03T00:55:17.030Z,10.50
2017-09-03T00:57:44.548Z,10.50
2017-09-03T01:00:12.072Z,10.50
2017-09-03T01:02:40.747Z,10.60
2017-09-03T01:05:08.427Z,10.50
2017-09-03T01:07:35.964Z,10.60
2017-09-03T01:10:03.651Z,10.60
2017-09-03T01:12:31.168Z,10.50
2017-09-03T01:14:58.723Z,10.50
2017-09-03T01:17:26.635Z,10.50
2017-09-03T01:19:54.154Z,10.50
2017-09-03T01:22:21.688Z,10.50
2017-09-03T01:24:49.222Z,10.50
2017-09-03T01:27:16.733Z,10.50
2017-09-03T01:29:44.248Z,10.50
2017-09-03T01:32:15.119Z,10.40
2017-09-03T01:34:42.624Z,10.40
2017-09-03T01:37:10.147Z,10.40
2017-09-03T01:39:37.690Z,10.30
2017-09-03T01:42:05.208Z,10.30
2017-09-03T01:44:32.756Z,10.30
2017-09-03T01:47:00.743Z,10.30
2017-09-03T01:49:31.925Z,10.30
2017-09-03T01:52:00.008Z,10.20
2017-09-03T01:54:27.556Z,10.20
2017-09-03T01:56:55.068Z,10.20
2017-09-03T01:59:22.616Z,10.20
2017-09-03T02:01:50.132Z,10.20
2017-09-03T02:04:17.668Z,10.10
2017-09-03T02:06:45.492Z,10.10
2017-09-03T02:09:13.015Z,10.10
2017-09-03T02:11:41.291Z,10.10
2017-09-03T02:14:09.273Z,10.00
2017-09-03T02:16:36.867Z,10.10
2017-09-03T02:19:04.759Z,10.00
2017-09-03T02:21:32.266Z,9.90
2017-09-03T02:23:59.815Z,9.90
2017-09-03T02:26:27.343Z,9.90
2017-09-03T02:28:54.883Z,9.90
2017-09-03T02:31:27.340Z,9.90
2017-09-03T02:33:57.060Z,9.90
2017-09-03T02:36:24.602Z,9.80
2017-09-03T02:38:52.140Z,9.90
2017-09-03T02:41:19.674Z,9.90
2017-09-03T02:43:47.332Z,9.80
2017-09-03T02:46:14.866Z,9.80
2017-09-03T02:48:42.388Z,9.80
2017-09-03T02:51:13.763Z,9.80
2017-09-03T02:53:41.269Z,9.80
2017-09-03T02:56:08.766Z,9.80
2017-09-03T02:58:37.044Z,9.80
2017-09-03T03:01:04.547Z,9.80
2017-09-03T03:03:35.965Z,9.80
2017-09-03T03:06:04.977Z,9.90
2017-09-03T03:08:32.505Z,9.90
2017-09-03T03:11:00.019Z,9.90
2017-09-03T03:13:27.525Z,9.90
2017-09-03T03:15:55.035Z,9.90
2017-09-03T03:18:24.695Z,10.00
2017-09-03T03:20:52.272Z,10.00
2017-09-03T03:23:19.815Z,10.00
2017-09-03T03:25:47.371Z,10.00
2017-09-03T03:28:14.916Z,10.00
2017-09-03T03:30:42.455Z,10.00
2017-09-03T03:33:10.011Z,10.00
2017-09-03T03:35:37.590Z,10.00
2017-09-03T03:38:06.844Z,10.00
2017-09-03T03:40:34.364Z,10.00
2017-09-03T03:43:01.875Z,10.00
2017-09-03T03:45:29.420Z,10.00
2017-09-03T03:47:56.929Z,10.00
2017-09-03T03:50:27.836Z,10.00
2017-09-03T03:52:55.343Z,10.00
2017-09-03T03:55:22.853Z,10.00
2017-09-03T03:57:50.492Z,10.00
2017-09-03T04:00:18.087Z,10.00
2017-09-03T04:02:45.643Z,10.00
2017-09-03T04:05:13.192Z,10.00
2017-09-03T04:07:40.695Z,10.00
2017-09-03T04:10:08.647Z,10.00
2017-09-03T04:12:36.215Z,10.00
2017-09-03T04:15:03.720Z,10.00
2017-09-03T04:17:31.236Z,10.00
2017-09-03T04:19:58.784Z,10.00
2017-09-03T04:22:26.413Z,10.00
2017-09-03T04:24:53.983Z,10.00
2017-09-03T04:27:21.499Z,10.00
2017-09-03T04:29:49.036Z,10.00
2017-09-03T04:32:16.592Z,10.00
2017-09-03T04:34:44.107Z,10.00
2017-09-03T04:37:11.616Z,10.00
2017-09-03T04:39:39.232Z,10.00
2017-09-03T04:42:06.751Z,10.00
2017-09-03T04:44:34.329Z,10.00
2017-09-03T04:47:01.839Z,10.00
2017-09-03T04:49:29.366Z,10.10
2017-09-03T04:51:56.927Z,10.10
2017-09-03T04:54:25.412Z,10.20
2017-09-03T04:56:52.944Z,10.30
2017-09-03T04:59:20.464Z,10.30
2017-09-03T05:01:48.918Z,10.40
2017-09-03T05:04:16.437Z,10.50
2017-09-03T05:06:43.964Z,10.60
2017-09-03T05:09:11.480Z,10.70
2017-09-03T05:11:39.219Z,10.70
2017-09-03T05:14:06.739Z,10.80
2017-09-03T05:16:34.239Z,10.90
2017-09-03T05:19:01.747Z,11.00
2017-09-03T05:21:33.177Z,11.10
2017-09-03T05:24:00.692Z,11.20
2017-09-03T05:26:28.207Z,11.30
2017-09-03T05:28:55.755Z,11.40
2017-09-03T05:31:23.399Z,11.50
2017-09-03T05:33:50.927Z,11.60
2017-09-03T05:36:18.441Z,11.70
2017-09-03T05:38:45.945Z,11.80
2017-09-03T05:41:16.627Z,11.80
2017-09-03T05:43:44.136Z,12.00
2017-09-03T05:46:12.107Z,12.50
2017-09-03T05:48:39.631Z,12.90
2017-09-03T05:51:07.147Z,13.10
2017-09-03T05:53:38.598Z,13.30
2017-09-03T05:56:06.471Z,13.40
2017-09-03T05:58:33.971Z,13.40
2017-09-03T06:01:01.484Z,13.20
2017-09-03T06:03:28.987Z,13.30
2017-09-03T06:06:03.771Z,13.50
2017-09-03T06:08:31.340Z,13.70
2017-09-03T06:10:58.864Z,13.80
2017-09-03T06:13:26.423Z,14.00
2017-09-03T06:15:53.979Z,14.10
2017-09-03T06:18:21.478Z,14.20
2017-09-03T06:20:48.989Z,14.40
2017-09-03T06:23:21.549Z,14.60
2017-09-03T06:25:49.116Z,14.60
2017-09-03T06:28:16.613Z,14.70
2017-09-03T06:30:44.167Z,15.10
2017-09-03T06:33:11.719Z,15.50
2017-09-03T06:35:39.227Z,15.70
2017-09-03T06:38:07.392Z,16.20
2017-09-03T06:40:34.913Z,16.60
2017-09-03T06:43:02.434Z,16.60
2017-09-03T06:45:30.017Z,16.60
2017-09-03T06:47:57.524Z,16.60
2017-09-03T06:50:25.067Z,16.70
2017-09-03T06:52:56.592Z,16.60
2017-09-03T06:55:24.134Z,16.60
2017-09-03T06:57:52.080Z,16.60
2017-09-03T07:00:19.618Z,16.50
2017-09-03T07:02:47.196Z,16.30
2017-09-03T07:05:14.716Z,16.10
2017-09-03T07:07:42.237Z,16.10
2017-09-03T07:10:10.193Z,15.90
2017-09-03T07:12:37.724Z,15.80
2017-09-03T07:15:05.240Z,15.60
2017-09-03T07:17:33.244Z,15.50
2017-09-03T07:20:00.760Z,15.40
2017-09-03T07:22:31.303Z,15.30
2017-09-03T07:24:58.808Z,15.30
2017-09-03T07:27:27.104Z,15.40
2017-09-03T07:29:54.611Z,15.40
2017-09-03T07:32:22.112Z,15.50
2017-09-03T07:34:49.614Z,15.50
2017-09-03T07:37:17.132Z,15.60
2017-09-03T07:39:48.441Z,15.70
2017-09-03T07:42:16.498Z,15.70
2017-09-03T07:44:44.013Z,15.50
2017-09-03T07:47:11.535Z,15.30
2017-09-03T07:49:39.043Z,15.10
2017-09-03T07:52:06.547Z,14.80
2017-09-03T07:54:34.052Z,14.70
2017-09-03T07:57:01.564Z,14.50
2017-09-03T07:59:29.103Z,14.40
2017-09-03T08:01:56.604Z,14.50
2017-09-03T08:04:24.103Z,14.60
2017-09-03T08:06:51.650Z,14.80
2017-09-03T08:09:19.156Z,15.00
2017-09-03T08:11:46.716Z,15.10
2017-09-03T08:14:14.264Z,15.40
2017-09-03T08:16:41.791Z,15.70
2017-09-03T08:19:09.332Z,15.80
2017-09-03T08:21:36.844Z,15.90
2017-09-03T08:24:04.347Z,16.30
2017-09-03T08:26:35.670Z,16.90
2017-09-03T08:29:03.367Z,17.20
2017-09-03T08:31:31.667Z,18.90
2017-09-03T08:33:59.160Z,18.80
2017-09-03T08:36:26.716Z,20.20
2017-09-03T08:38:57.854Z,21.50
2017-09-03T08:41:25.866Z,23.60
2017-09-03T08:43:53.387Z,26.20
2017-09-03T08:46:21.452Z,28.10
2017-09-03T08:48:48.956Z,30.30
2017-09-03T08:51:16.624Z,32.10
2017-09-03T08:53:48.433Z,34.30
2017-09-03T08:56:16.021Z,33.40
2017-09-03T08:58:43.527Z,32.20
2017-09-03T09:01:11.063Z,32.80
2017-09-03T09:03:39.175Z,34.10
2017-09-03T09:06:06.692Z,35.40
2017-09-03T09:08:34.567Z,35.90
2017-09-03T09:11:02.098Z,36.40
2017-09-03T09:13:29.607Z,36.40
2017-09-03T09:15:57.156Z,36.80
2017-09-03T09:21:04.227Z,35.90
2017-09-03T09:23:31.733Z,35.60
2017-09-03T09:26:00.161Z,35.60
2017-09-03T09:28:27.681Z,36.00
2017-09-03T09:30:55.204Z,36.40
2017-09-03T09:33:22.704Z,36.40
2017-09-03T09:35:50.219Z,36.00
2017-09-03T09:38:18.350Z,34.10
2017-09-03T09:40:47.112Z,33.50
2017-09-03T09:43:14.622Z,33.10
2017-09-03T09:45:42.129Z,35.00
2017-09-03T09:48:09.652Z,35.00
2017-09-03T09:50:37.154Z,36.80
2017-09-03T09:53:05.500Z,38.50
2017-09-03T09:55:33.027Z,39.50
2017-09-03T09:58:01.044Z,40.20
2017-09-03T10:00:29.429Z,40.50
2017-09-03T10:02:58.635Z,40.70
2017-09-03T10:05:26.158Z,40.60
2017-09-03T10:07:53.660Z,40.10
2017-09-03T10:10:24.339Z,37.70
2017-09-03T10:12:52.781Z,37.60
2017-09-03T10:15:20.440Z,34.90
2017-09-03T10:17:49.171Z,32.50
2017-09-03T10:20:17.300Z,30.40
2017-09-03T10:22:44.844Z,29.10
2017-09-03T10:25:15.675Z,28.40
2017-09-03T10:27:43.201Z,28.40
2017-09-03T10:30:19.867Z,27.50
2017-09-03T10:32:47.383Z,26.30
2017-09-03T10:35:15.663Z,25.10
2017-09-03T10:37:43.282Z,25.10
2017-09-03T10:40:10.824Z,28.10
2017-09-03T10:42:39.148Z,34.30
2017-09-03T10:45:08.377Z,36.60
2017-09-03T10:47:35.931Z,36.40
2017-09-03T10:50:03.448Z,36.80
2017-09-03T10:52:31.022Z,34.40
2017-09-03T10:54:58.532Z,31.90
2017-09-03T10:57:27.883Z,30.10
2017-09-03T10:59:55.415Z,32.50
2017-09-03T11:02:22.970Z,34.90
2017-09-03T11:04:50.479Z,35.80
2017-09-03T11:07:19.685Z,36.40
2017-09-03T11:09:47.187Z,36.40
2017-09-03T11:12:14.733Z,35.50
2017-09-03T11:14:42.266Z,37.10
2017-09-03T11:17:11.464Z,39.10
2017-09-03T11:19:38.973Z,39.10
2017-09-03T11:22:06.475Z,40.20
2017-09-03T11:24:35.896Z,38.60
2017-09-03T11:27:03.407Z,35.70
2017-09-03T11:29:30.933Z,34.10
2017-09-03T11:31:58.450Z,35.20
2017-09-03T11:34:26.974Z,36.80
2017-09-03T11:36:54.713Z,37.10
2017-09-03T11:39:23.104Z,37.20
2017-09-03T11:41:50.617Z,37.50
2017-09-03T11:44:18.834Z,37.80
2017-09-03T11:46:47.114Z,38.70
2017-09-03T11:49:15.074Z,38.70
2017-09-03T11:51:43.568Z,39.10
2017-09-03T11:54:11.088Z,39.50
2017-09-03T11:56:38.684Z,39.60
2017-09-03T11:59:06.191Z,38.70
2017-09-03T12:01:33.695Z,39.00
2017-09-03T12:04:01.204Z,39.20
2017-09-03T12:06:28.816Z,39.10
2017-09-03T12:08:56.329Z,39.50
2017-09-03T12:11:24.056Z,39.00
2017-09-03T12:13:52.058Z,39.00
2017-09-03T12:16:19.646Z,38.50
2017-09-03T12:18:47.157Z,36.10
2017-09-03T12:21:15.236Z,35.70
2017-09-03T12:23:42.816Z,36.70
2017-09-03T12:26:11.068Z,37.30
2017-09-03T12:28:38.667Z,37.90
2017-09-03T12:31:13.883Z,38.10
2017-09-03T12:33:42.035Z,38.10
2017-09-03T12:36:09.556Z,37.20
2017-09-03T12:38:37.886Z,37.00
2017-09-03T12:41:05.432Z,36.90
2017-09-03T12:43:35.720Z,36.70
2017-09-03T12:46:11.561Z,34.50
2017-09-03T12:48:39.235Z,31.50
2017-09-03T12:51:07.412Z,30.40
2017-09-03T12:53:34.933Z,29.70
2017-09-03T12:56:02.513Z,29.40
2017-09-03T12:58:30.025Z,28.90
2017-09-03T13:01:01.374Z,28.50
2017-09-03T13:03:28.938Z,28.20
2017-09-03T13:05:56.869Z,27.80
2017-09-03T13:08:24.399Z,27.70
2017-09-03T13:10:51.961Z,27.50
2017-09-03T13:13:19.487Z,27.10
2017-09-03T13:15:47.006Z,27.40
2017-09-03T13:18:14.553Z,27.50
2017-09-03T13:20:42.123Z,27.40
2017-09-03T13:23:09.653Z,27.10
2017-09-03T13:25:37.180Z,26.70
2017-09-03T13:28:09.389Z,26.60
2017-09-03T13:30:37.159Z,26.40
2017-09-03T13:33:05.159Z,26.40
2017-09-03T13:35:32.691Z,26.30
2017-09-03T13:38:00.252Z,26.00
2017-09-03T13:40:27.783Z,25.80
2017-09-03T13:42:55.324Z,25.70
2017-09-03T13:45:22.848Z,25.60
2017-09-03T13:47:50.445Z,25.50
2017-09-03T13:50:19.644Z,25.00
2017-09-03T13:52:47.157Z,25.00
2017-09-03T13:55:14.760Z,24.90
2017-09-03T13:57:42.283Z,24.90
2017-09-03T14:00:09.843Z,24.90
2017-09-03T14:02:38.496Z,24.90
2017-09-03T14:05:06.732Z,24.70
2017-09-03T14:07:34.277Z,24.70
2017-09-03T14:10:01.800Z,24.60
2017-09-03T14:12:29.355Z,24.60
2017-09-03T14:14:57.349Z,24.60
2017-09-03T14:17:24.896Z,24.40
2017-09-03T14:19:52.707Z,24.30
2017-09-03T14:22:20.250Z,24.20
2017-09-03T14:24:47.908Z,24.20
2017-09-03T14:27:15.443Z,24.10
2017-09-03T14:29:43.744Z,23.90
2017-09-03T14:32:11.287Z,23.90
2017-09-03T14:34:38.816Z,24.00
2017-09-03T14:37:06.743Z,24.10
2017-09-03T14:39:34.257Z,24.00
2017-09-03T14:42:01.801Z,24.00
2017-09-03T14:44:30.235Z,23.90
2017-09-03T14:46:57.809Z,23.60
2017-09-03T14:49:25.365Z,23.50
2017-09-03T14:51:53.048Z,23.20
2017-09-03T14:54:20.602Z,22.90
2017-09-03T14:56:49.838Z,22.40
2017-09-03T14:59:18.127Z,21.20
2017-09-03T15:01:45.632Z,21.20
2017-09-03T15:04:14.056Z,20.50
2017-09-03T15:06:42.820Z,20.30
2017-09-03T15:09:10.349Z,19.90
2017-09-03T15:11:38.652Z,19.80
2017-09-03T15:14:06.286Z,20.00
2017-09-03T15:16:34.589Z,19.90
2017-09-03T15:19:03.792Z,19.90
2017-09-03T15:21:32.073Z,19.60
2017-09-03T15:23:59.625Z,19.60
2017-09-03T15:26:28.062Z,19.40
2017-09-03T15:28:55.575Z,19.20
2017-09-03T15:31:23.896Z,18.30
2017-09-03T15:33:51.795Z,18.20
2017-09-03T15:36:19.299Z,18.40
2017-09-03T15:38:47.399Z,18.30
2017-09-03T15:41:15.406Z,18.40
2017-09-03T15:43:42.921Z,18.50
2017-09-03T15:46:10.448Z,18.70
2017-09-03T15:48:37.954Z,18.60
2017-09-03T15:51:06.807Z,18.40
2017-09-03T15:53:34.360Z,17.80
2017-09-03T15:56:02.690Z,16.90
2017-09-03T15:58:30.220Z,16.90
2017-09-03T16:00:59.596Z,16.90
2017-09-03T16:03:27.883Z,17.10
2017-09-03T16:05:55.814Z,17.00
2017-09-03T16:08:23.334Z,17.00
2017-09-03T16:10:50.861Z,17.10
2017-09-03T16:13:18.654Z,17.20
2017-09-03T16:15:46.187Z,17.30
2017-09-03T16:18:13.723Z,17.60
2017-09-03T16:20:41.244Z,17.70
2017-09-03T16:23:08.798Z,17.90
2017-09-03T16:25:36.317Z,18.10
2017-09-03T16:28:04.161Z,18.10
2017-09-03T16:30:31.733Z,18.10
2017-09-03T16:32:59.255Z,18.10
2017-09-03T16:35:27.711Z,17.90
2017-09-03T16:37:56.169Z,17.80
2017-09-03T16:40:23.727Z,17.80
2017-09-03T16:42:52.035Z,17.80
2017-09-03T16:45:19.551Z,17.70
2017-09-03T16:47:48.168Z,17.70
2017-09-03T16:50:15.705Z,17.80
2017-09-03T16:52:43.227Z,17.90
2017-09-03T16:55:11.118Z,17.90
2017-09-03T16:57:38.652Z,17.80
2017-09-03T17:00:06.168Z,17.80
2017-09-03T17:02:34.451Z,17.60
2017-09-03T17:05:01.976Z,17.60
2017-09-03T17:07:29.499Z,17.40
2017-09-03T17:09:57.803Z,17.00
2017-09-03T17:12:25.314Z,17.10
2017-09-03T17:14:52.841Z,16.80
2017-09-03T17:17:20.664Z,16.70
2017-09-03T17:19:48.220Z,16.60
2017-09-03T17:22:15.744Z,16.50
2017-09-03T17:24:44.015Z,16.40
2017-09-03T17:27:11.535Z,16.40
2017-09-03T17:29:39.048Z,16.30
2017-09-03T17:32:12.658Z,16.10
2017-09-03T17:35:02.260Z,16.10
2017-09-03T17:37:46.308Z,16.00
2017-09-03T17:40:18.526Z,16.00
2017-09-03T17:42:46.040Z,16.00
2017-09-03T17:45:13.564Z,16.00
2017-09-03T17:47:42.760Z,15.90
2017-09-03T17:50:10.276Z,15.90
2017-09-03T17:52:37.828Z,16.00
2017-09-03T17:55:05.372Z,16.10
2017-09-03T17:57:32.907Z,16.10
2017-09-03T18:00:01.747Z,16.20
2017-09-03T18:02:29.333Z,16.10
2017-09-03T18:04:56.856Z,16.20
2017-09-03T18:07:24.952Z,16.00
2017-09-03T18:09:52.519Z,15.90
2017-09-03T18:12:20.042Z,15.90
2017-09-03T18:14:47.569Z,15.80
2017-09-03T18:17:15.108Z,15.70
2017-09-03T18:19:42.616Z,15.60
2017-09-03T18:22:10.125Z,15.70
2017-09-03T18:24:37.676Z,15.70
2017-09-03T18:27:05.199Z,15.70
2017-09-03T18:29:47.457Z,15.70
2017-09-03T18:32:17.015Z,15.60
2017-09-03T18:34:45.102Z,15.60
2017-09-03T18:37:19.063Z,15.50
2017-09-03T18:39:51.669Z,15.50
2017-09-03T18:42:24.719Z,15.40
2017-09-03T18:44:54.241Z,15.20
2017-09-03T18:47:21.741Z,15.20
2017-09-03T18:49:56.707Z,15.20
2017-09-03T18:52:28.222Z,15.20
2017-09-03T18:54:55.840Z,15.10
2017-09-03T18:57:25.341Z,15.00
2017-09-03T18:59:52.889Z,15.00
2017-09-03T19:02:22.124Z,14.90
2017-09-03T19:05:09.777Z,14.80
2017-09-03T19:07:37.552Z,14.80
2017-09-03T19:10:05.065Z,14.80
2017-09-03T19:12:32.584Z,14.70
2017-09-03T19:15:00.138Z,14.70
2017-09-03T19:17:27.643Z,14.60
2017-09-03T19:19:56.845Z,14.50
2017-09-03T19:22:24.379Z,14.50
2017-09-03T19:24:51.895Z,14.50
2017-09-03T19:27:19.461Z,14.40
2017-09-03T19:29:46.964Z,14.40
2017-09-03T19:32:15.260Z,14.30
2017-09-03T19:34:47.088Z,14.30
2017-09-03T19:37:15.574Z,14.30
2017-09-03T19:39:43.139Z,14.20
2017-09-03T19:42:10.674Z,14.10
2017-09-03T19:44:38.228Z,14.00
2017-09-03T19:47:05.751Z,14.00
2017-09-03T19:49:37.658Z,13.90
2017-09-03T19:52:05.160Z,13.80
2017-09-03T19:54:33.471Z,13.80
2017-09-03T19:57:01.841Z,13.70
2017-09-03T19:59:30.537Z,13.70
2017-09-03T20:01:58.047Z,13.70
2017-09-03T20:04:25.577Z,13.70
2017-09-03T20:06:57.209Z,13.60
2017-09-03T20:09:25.608Z,13.60
2017-09-03T20:11:54.819Z,13.50
2017-09-03T20:14:22.345Z,13.50
2017-09-03T20:16:52.674Z,13.50
2017-09-03T20:19:20.200Z,13.50
2017-09-03T20:21:47.740Z,13.40
2017-09-03T20:24:15.271Z,13.30
2017-09-03T20:26:42.768Z,13.30
2017-09-03T20:29:10.288Z,13.20
2017-09-03T20:31:38.675Z,13.10
2017-09-03T20:34:06.213Z,13.00
2017-09-03T20:36:34.496Z,12.90
2017-09-03T20:39:02.035Z,12.90
2017-09-03T20:41:29.557Z,12.90
2017-09-03T20:43:57.995Z,12.90
2017-09-03T20:46:25.496Z,12.80
2017-09-03T20:48:53.363Z,12.80
2017-09-03T20:51:20.948Z,12.80
2017-09-03T20:53:48.505Z,12.80
2017-09-03T20:56:16.823Z,12.70
2017-09-03T20:58:44.403Z,12.70
2017-09-03T21:01:11.911Z,12.70
2017-09-03T21:03:39.424Z,12.70
2017-09-03T21:06:07.881Z,12.60
2017-09-03T21:08:36.216Z,12.50
2017-09-03T21:11:03.770Z,12.50
2017-09-03T21:13:31.343Z,12.50
2017-09-03T21:15:58.842Z,12.40
2017-09-03T21:18:26.386Z,12.40
2017-09-03T21:20:57.852Z,12.30
2017-09-03T21:23:26.500Z,12.20
2017-09-03T21:25:53.999Z,12.20
2017-09-03T21:28:21.502Z,12.20
2017-09-03T21:30:49.006Z,12.20
2017-09-03T21:33:16.565Z,12.20
2017-09-03T21:35:44.712Z,12.30
2017-09-03T21:38:12.223Z,12.30
2017-09-03T21:40:39.759Z,12.40
2017-09-03T21:43:07.779Z,12.50
2017-09-03T21:45:35.751Z,12.50
2017-09-03T21:48:04.179Z,12.50
2017-09-03T21:50:31.702Z,12.50
2017-09-03T21:52:59.212Z,12.50
2017-09-03T21:55:26.768Z,12.40
2017-09-03T21:57:54.276Z,12.40
2017-09-03T22:00:21.813Z,12.30
2017-09-03T22:02:49.356Z,12.30
2017-09-03T22:05:17.832Z,12.30
2017-09-03T22:07:45.343Z,12.30
2017-09-03T22:10:12.887Z,12.30
2017-09-03T22:12:41.856Z,12.30
2017-09-03T22:15:10.047Z,12.20
2017-09-03T22:17:37.551Z,12.20
2017-09-03T22:20:05.081Z,12.20
2017-09-03T22:22:32.588Z,12.20
2017-09-03T22:25:00.088Z,12.20
2017-09-03T22:27:27.592Z,12.10
2017-09-03T22:29:56.808Z,12.10
2017-09-03T22:32:24.343Z,12.00
2017-09-03T22:34:51.852Z,12.00
2017-09-03T22:37:20.743Z,12.00
2017-09-03T22:39:48.247Z,11.90
2017-09-03T22:42:15.818Z,11.80
2017-09-03T22:44:44.092Z,11.60
2017-09-03T22:47:11.631Z,11.60
2017-09-03T22:49:40.103Z,11.60
2017-09-03T22:52:07.629Z,11.50
2017-09-03T22:54:35.175Z,11.50
2017-09-03T22:57:02.711Z,11.50
2017-09-03T22:59:30.227Z,11.40
2017-09-03T23:01:57.785Z,11.40
2017-09-03T23:04:25.303Z,11.40
2017-09-03T23:06:54.498Z,11.30
2017-09-03T23:09:22.055Z,11.30
2017-09-03T23:11:50.335Z,11.20
2017-09-03T23:14:19.531Z,11.20
2017-09-03T23:16:47.075Z,11.10
2017-09-03T23:19:14.578Z,11.10
2017-09-03T23:21:42.085Z,11.10
2017-09-03T23:24:09.584Z,11.10
2017-09-03T23:26:37.686Z,11.10
2017-09-03T23:29:05.237Z,11.10
2017-09-03T23:31:32.814Z,11.10
2017-09-03T23:34:00.327Z,11.00
2017-09-03T23:36:27.916Z,11.00
2017-09-03T23:38:55.434Z,11.00
2017-09-03T23:41:26.968Z,10.90
2017-09-03T23:43:54.472Z,10.90
2017-09-03T23:46:21.984Z,10.90
2017-09-03T23:48:49.488Z,10.90
2017-09-03T23:51:16.988Z,10.80
2017-09-03T23:53:48.306Z,10.80
2017-09-03T23:56:16.775Z,10.80
2017-09-03T23:58:44.275Z,10.70
